sensor_id;sensor_type;location;lat;lon;timestamp;pressure;altitude;pressure_sealevel;temperature;humidity
24031;BME280;12240;51.142;22.486;2023-09-19T00:02:03;99002.53;;;16.10;100.00
24031;BME280;12240;51.142;22.486;2023-09-19T00:04:37;99000.06;;;16.08;100.00
24031;BME280;12240;51.142;22.486;2023-09-19T00:07:07;98995.47;;;16.02;100.00
24031;BME280;12240;51.142;22.486;2023-09-19T00:09:37;98991.53;;;15.98;100.00
24031;BME280;12240;51.142;22.486;2023-09-19T00:12:06;98989.66;;;15.99;100.00
24031;BME280;12240;51.142;22.486;2023-09-19T00:14:36;98992.56;;;15.97;100.00
24031;BME280;12240;51.142;22.486;2023-09-19T00:17:05;98985.53;;;16.03;100.00
24031;BME280;12240;51.142;22.486;2023-09-19T00:19:36;98988.00;;;15.98;100.00
24031;BME280;12240;51.142;22.486;2023-09-19T00:22:05;98990.88;;;15.96;100.00
24031;BME280;12240;51.142;22.486;2023-09-19T00:24:33;98987.81;;;15.99;100.00
24031;BME280;12240;51.142;22.486;2023-09-19T00:27:02;98983.50;;;16.05;100.00
24031;BME280;12240;51.142;22.486;2023-09-19T00:29:30;98978.22;;;16.18;100.00
24031;BME280;12240;51.142;22.486;2023-09-19T00:31:59;98985.69;;;16.22;100.00
24031;BME280;12240;51.142;22.486;2023-09-19T00:34:28;98970.88;;;16.33;100.00
24031;BME280;12240;51.142;22.486;2023-09-19T00:36:57;98980.44;;;16.42;100.00
24031;BME280;12240;51.142;22.486;2023-09-19T00:39:27;98968.41;;;16.38;100.00
24031;BME280;12240;51.142;22.486;2023-09-19T00:42:00;98974.03;;;16.43;100.00
24031;BME280;12240;51.142;22.486;2023-09-19T00:44:33;98960.84;;;16.48;100.00
24031;BME280;12240;51.142;22.486;2023-09-19T00:47:03;98955.91;;;16.52;100.00
24031;BME280;12240;51.142;22.486;2023-09-19T00:49:33;98959.84;;;16.49;100.00
24031;BME280;12240;51.142;22.486;2023-09-19T00:52:01;98954.84;;;16.46;100.00
24031;BME280;12240;51.142;22.486;2023-09-19T00:54:32;98957.69;;;16.45;100.00
24031;BME280;12240;51.142;22.486;2023-09-19T00:57:01;98947.16;;;16.43;100.00
24031;BME280;12240;51.142;22.486;2023-09-19T00:59:29;98949.84;;;16.43;100.00
24031;BME280;12240;51.142;22.486;2023-09-19T01:01:58;98952.78;;;16.48;100.00
24031;BME280;12240;51.142;22.486;2023-09-19T01:04:28;98951.13;;;16.47;100.00
24031;BME280;12240;51.142;22.486;2023-09-19T01:06:58;98940.41;;;16.54;100.00
24031;BME280;12240;51.142;22.486;2023-09-19T01:09:26;98947.06;;;16.58;100.00
24031;BME280;12240;51.142;22.486;2023-09-19T01:12:02;98939.38;;;16.55;100.00
24031;BME280;12240;51.142;22.486;2023-09-19T01:14:56;98933.81;;;16.56;100.00
24031;BME280;12240;51.142;22.486;2023-09-19T01:17:34;98928.38;;;16.50;100.00
24031;BME280;12240;51.142;22.486;2023-09-19T01:20:45;98929.03;;;16.52;100.00
24031;BME280;12240;51.142;22.486;2023-09-19T01:27:24;98908.78;;;16.49;100.00
24031;BME280;12240;51.142;22.486;2023-09-19T01:30:11;98900.28;;;16.52;100.00
24031;BME280;12240;51.142;22.486;2023-09-19T01:32:42;98905.03;;;16.50;100.00
24031;BME280;12240;51.142;22.486;2023-09-19T01:35:11;98903.56;;;16.48;100.00
24031;BME280;12240;51.142;22.486;2023-09-19T01:37:41;98903.56;;;16.48;100.00
24031;BME280;12240;51.142;22.486;2023-09-19T01:40:18;98890.97;;;16.48;100.00
24031;BME280;12240;51.142;22.486;2023-09-19T01:43:14;98892.44;;;16.51;100.00
24031;BME280;12240;51.142;22.486;2023-09-19T01:46:58;98887.44;;;16.48;100.00
24031;BME280;12240;51.142;22.486;2023-09-19T01:52:14;98885.81;;;16.47;100.00
24031;BME280;12240;51.142;22.486;2023-09-19T01:54:52;98883.13;;;16.53;100.00
24031;BME280;12240;51.142;22.486;2023-09-19T01:57:40;98881.69;;;16.51;100.00
24031;BME280;12240;51.142;22.486;2023-09-19T02:00:12;98882.06;;;16.48;100.00
24031;BME280;12240;51.142;22.486;2023-09-19T02:02:47;98877.53;;;16.48;100.00
24031;BME280;12240;51.142;22.486;2023-09-19T02:05:23;98882.84;;;16.42;100.00
24031;BME280;12240;51.142;22.486;2023-09-19T02:07:56;98878.31;;;16.42;100.00
24031;BME280;12240;51.142;22.486;2023-09-19T02:10:26;98871.06;;;16.43;100.00
24031;BME280;12240;51.142;22.486;2023-09-19T02:12:55;98875.22;;;16.39;100.00
24031;BME280;12240;51.142;22.486;2023-09-19T02:15:24;98870.84;;;16.38;100.00
24031;BME280;12240;51.142;22.486;2023-09-19T02:17:52;98866.09;;;16.40;100.00
24031;BME280;12240;51.142;22.486;2023-09-19T02:20:21;98867.94;;;16.39;100.00
24031;BME280;12240;51.142;22.486;2023-09-19T02:22:50;98858.88;;;16.33;100.00
24031;BME280;12240;51.142;22.486;2023-09-19T02:25:18;98868.13;;;16.31;100.00
24031;BME280;12240;51.142;22.486;2023-09-19T02:27:47;98867.50;;;16.29;100.00
24031;BME280;12240;51.142;22.486;2023-09-19T02:30:15;98866.28;;;16.25;100.00
24031;BME280;12240;51.142;22.486;2023-09-19T02:32:43;98860.47;;;16.21;100.00
24031;BME280;12240;51.142;22.486;2023-09-19T02:35:12;98862.53;;;16.19;100.00
24031;BME280;12240;51.142;22.486;2023-09-19T02:37:42;98867.25;;;16.17;100.00
24031;BME280;12240;51.142;22.486;2023-09-19T02:40:11;98860.66;;;16.20;100.00
24031;BME280;12240;51.142;22.486;2023-09-19T02:42:53;98860.25;;;16.23;100.00
24031;BME280;12240;51.142;22.486;2023-09-19T02:45:23;98849.31;;;16.24;100.00
24031;BME280;12240;51.142;22.486;2023-09-19T02:47:51;98851.16;;;16.24;100.00
24031;BME280;12240;51.142;22.486;2023-09-19T02:50:19;98850.75;;;16.27;100.00
24031;BME280;12240;51.142;22.486;2023-09-19T02:52:48;98856.19;;;16.33;100.00
24031;BME280;12240;51.142;22.486;2023-09-19T02:55:18;98852.22;;;16.29;100.00
24031;BME280;12240;51.142;22.486;2023-09-19T02:57:47;98844.78;;;16.31;100.00
24031;BME280;12240;51.142;22.486;2023-09-19T03:00:18;98851.41;;;16.35;100.00
24031;BME280;12240;51.142;22.486;2023-09-19T03:02:53;98841.91;;;16.33;100.00
24031;BME280;12240;51.142;22.486;2023-09-19T03:05:23;98836.31;;;16.28;100.00
24031;BME280;12240;51.142;22.486;2023-09-19T03:07:52;98833.63;;;16.28;100.00
24031;BME280;12240;51.142;22.486;2023-09-19T03:10:22;98833.63;;;16.28;100.00
24031;BME280;12240;51.142;22.486;2023-09-19T03:12:51;98832.34;;;16.24;100.00
24031;BME280;12240;51.142;22.486;2023-09-19T03:15:20;98835.03;;;16.24;100.00
24031;BME280;12240;51.142;22.486;2023-09-19T03:17:51;98826.53;;;16.14;100.00
24031;BME280;12240;51.142;22.486;2023-09-19T03:20:24;98821.16;;;16.07;100.00
24031;BME280;12240;51.142;22.486;2023-09-19T03:22:55;98823.41;;;16.04;100.00
24031;BME280;12240;51.142;22.486;2023-09-19T03:25:23;98821.13;;;16.01;100.00
24031;BME280;12240;51.142;22.486;2023-09-19T03:27:55;98817.41;;;16.02;100.00
24031;BME280;12240;51.142;22.486;2023-09-19T03:30:26;98820.50;;;15.99;100.00
24031;BME280;12240;51.142;22.486;2023-09-19T03:32:55;98812.44;;;15.99;100.00
24031;BME280;12240;51.142;22.486;2023-09-19T03:35:22;98816.56;;;16.01;100.00
24031;BME280;12240;51.142;22.486;2023-09-19T03:37:50;98815.69;;;15.94;100.00
24031;BME280;12240;51.142;22.486;2023-09-19T03:40:20;98804.38;;;15.99;100.00
24031;BME280;12240;51.142;22.486;2023-09-19T03:42:50;98814.50;;;15.97;100.00
24031;BME280;12240;51.142;22.486;2023-09-19T03:45:18;98817.38;;;15.95;100.00
24031;BME280;12240;51.142;22.486;2023-09-19T03:47:52;98807.28;;;15.97;100.00
24031;BME280;12240;51.142;22.486;2023-09-19T03:50:23;98808.69;;;15.93;100.00
24031;BME280;12240;51.142;22.486;2023-09-19T03:52:56;98804.16;;;15.94;100.00
24031;BME280;12240;51.142;22.486;2023-09-19T03:55:25;98800.00;;;15.91;100.00
24031;BME280;12240;51.142;22.486;2023-09-19T03:57:55;98804.75;;;15.89;100.00
24031;BME280;12240;51.142;22.486;2023-09-19T04:00:23;98804.94;;;15.88;100.00
24031;BME280;12240;51.142;22.486;2023-09-19T04:02:54;98800.19;;;15.83;100.00
24031;BME280;12240;51.142;22.486;2023-09-19T04:05:24;98797.50;;;15.83;100.00
24031;BME280;12240;51.142;22.486;2023-09-19T04:07:53;98796.47;;;15.84;100.00
24031;BME280;12240;51.142;22.486;2023-09-19T04:10:21;98796.66;;;15.83;100.00
24031;BME280;12240;51.142;22.486;2023-09-19T04:12:53;98796.66;;;15.83;100.00
24031;BME280;12240;51.142;22.486;2023-09-19T04:15:24;98784.28;;;15.82;100.00
24031;BME280;12240;51.142;22.486;2023-09-19T04:17:54;98785.13;;;15.89;100.00
24031;BME280;12240;51.142;22.486;2023-09-19T04:20:23;98783.25;;;15.89;100.00
24031;BME280;12240;51.142;22.486;2023-09-19T04:22:51;98776.69;;;15.92;100.00
24031;BME280;12240;51.142;22.486;2023-09-19T04:25:20;98777.94;;;15.96;100.00
24031;BME280;12240;51.142;22.486;2023-09-19T04:27:48;98779.38;;;15.98;100.00
24031;BME280;12240;51.142;22.486;2023-09-19T04:30:18;98779.19;;;16.00;100.00
24031;BME280;12240;51.142;22.486;2023-09-19T04:32:45;98769.91;;;16.09;100.00
24031;BME280;12240;51.142;22.486;2023-09-19T04:35:19;98773.44;;;16.16;100.00
24031;BME280;12240;51.142;22.486;2023-09-19T04:37:48;98773.66;;;16.21;100.00
24031;BME280;12240;51.142;22.486;2023-09-19T04:40:16;98762.72;;;16.29;100.00
24031;BME280;12240;51.142;22.486;2023-09-19T04:42:53;98750.75;;;16.31;100.00
24031;BME280;12240;51.142;22.486;2023-09-19T04:45:26;98753.03;;;16.41;100.00
24031;BME280;12240;51.142;22.486;2023-09-19T04:47:55;98749.53;;;16.41;100.00
24031;BME280;12240;51.142;22.486;2023-09-19T04:50:25;98745.22;;;16.46;100.00
24031;BME280;12240;51.142;22.486;2023-09-19T04:52:55;98743.16;;;16.48;100.00
24031;BME280;12240;51.142;22.486;2023-09-19T04:55:25;98743.56;;;16.52;100.00
24031;BME280;12240;51.142;22.486;2023-09-19T04:57:54;98734.09;;;16.56;100.00
24031;BME280;12240;51.142;22.486;2023-09-19T05:00:23;98736.56;;;16.57;100.00
24031;BME280;12240;51.142;22.486;2023-09-19T05:02:55;98737.59;;;16.63;100.00
24031;BME280;12240;51.142;22.486;2023-09-19T05:05:25;98736.16;;;16.80;100.00
24031;BME280;12240;51.142;22.486;2023-09-19T05:07:53;98734.09;;;16.88;100.00
24031;BME280;12240;51.142;22.486;2023-09-19T05:10:22;98724.97;;;16.96;100.00
24031;BME280;12240;51.142;22.486;2023-09-19T05:12:53;98718.34;;;17.05;100.00
24031;BME280;12240;51.142;22.486;2023-09-19T05:15:22;98716.69;;;17.10;100.00
24031;BME280;12240;51.142;22.486;2023-09-19T05:17:51;98710.88;;;17.13;100.00
24031;BME280;12240;51.142;22.486;2023-09-19T05:20:25;98707.97;;;17.21;100.00
24031;BME280;12240;51.142;22.486;2023-09-19T05:23:10;98708.13;;;17.39;100.00
24031;BME280;12240;51.142;22.486;2023-09-19T05:25:41;98701.47;;;17.55;100.00
24031;BME280;12240;51.142;22.486;2023-09-19T05:28:11;98699.56;;;17.69;100.00
24031;BME280;12240;51.142;22.486;2023-09-19T05:30:43;98697.41;;;17.84;100.00
24031;BME280;12240;51.142;22.486;2023-09-19T05:33:15;98683.22;;;18.01;100.00
24031;BME280;12240;51.142;22.486;2023-09-19T05:35:48;98694.41;;;18.05;100.00
24031;BME280;12240;51.142;22.486;2023-09-19T05:38:16;98680.19;;;18.22;100.00
24031;BME280;12240;51.142;22.486;2023-09-19T05:40:47;98687.19;;;18.30;100.00
24031;BME280;12240;51.142;22.486;2023-09-19T05:43:15;98680.09;;;18.35;100.00
24031;BME280;12240;51.142;22.486;2023-09-19T05:45:43;98670.97;;;18.36;100.00
24031;BME280;12240;51.142;22.486;2023-09-19T05:48:14;98667.97;;;18.51;100.00
24031;BME280;12240;51.142;22.486;2023-09-19T05:50:45;98666.66;;;18.60;100.00
24031;BME280;12240;51.142;22.486;2023-09-19T05:53:16;98659.06;;;18.75;100.00
24031;BME280;12240;51.142;22.486;2023-09-19T05:55:46;98658.66;;;18.96;100.00
24031;BME280;12240;51.142;22.486;2023-09-19T05:58:15;98663.25;;;19.14;100.00
24031;BME280;12240;51.142;22.486;2023-09-19T06:00:46;98647.31;;;19.30;100.00
24031;BME280;12240;51.142;22.486;2023-09-19T06:03:16;98652.09;;;19.46;100.00
24031;BME280;12240;51.142;22.486;2023-09-19T06:05:46;98647.50;;;19.47;100.00
24031;BME280;12240;51.142;22.486;2023-09-19T06:08:18;98651.78;;;19.73;100.00
24031;BME280;12240;51.142;22.486;2023-09-19T06:10:46;98645.25;;;19.92;100.00
24031;BME280;12240;51.142;22.486;2023-09-19T06:13:15;98639.84;;;20.21;100.00
24031;BME280;12240;51.142;22.486;2023-09-19T06:15:43;98628.91;;;20.16;100.00
24031;BME280;12240;51.142;22.486;2023-09-19T06:18:12;98629.47;;;20.48;100.00
24031;BME280;12240;51.142;22.486;2023-09-19T06:20:47;98622.78;;;20.62;100.00
24031;BME280;12240;51.142;22.486;2023-09-19T06:23:15;98611.00;;;20.79;100.00
24031;BME280;12240;51.142;22.486;2023-09-19T06:25:43;98609.94;;;20.69;100.00
24031;BME280;12240;51.142;22.486;2023-09-19T06:28:11;98595.81;;;20.32;100.00
24031;BME280;12240;51.142;22.486;2023-09-19T06:30:40;98603.22;;;20.37;100.00
24031;BME280;12240;51.142;22.486;2023-09-19T06:33:08;98585.00;;;20.44;100.00
24031;BME280;12240;51.142;22.486;2023-09-19T06:35:39;98600.19;;;20.45;100.00
24031;BME280;12240;51.142;22.486;2023-09-19T06:38:10;98599.72;;;20.59;100.00
24031;BME280;12240;51.142;22.486;2023-09-19T06:40:41;98605.72;;;20.50;100.00
24031;BME280;12240;51.142;22.486;2023-09-19T06:43:12;98611.00;;;20.45;100.00
24031;BME280;12240;51.142;22.486;2023-09-19T06:45:40;98618.75;;;20.53;100.00
24031;BME280;12240;51.142;22.486;2023-09-19T06:48:08;98627.81;;;20.58;100.00
24031;BME280;12240;51.142;22.486;2023-09-19T06:50:38;98617.31;;;20.39;100.00
24031;BME280;12240;51.142;22.486;2023-09-19T06:53:09;98623.09;;;20.31;100.00
24031;BME280;12240;51.142;22.486;2023-09-19T06:55:37;98630.00;;;20.27;100.00
24031;BME280;12240;51.142;22.486;2023-09-19T06:58:05;98634.53;;;20.15;100.00
24031;BME280;12240;51.142;22.486;2023-09-19T07:00:39;98639.66;;;20.05;100.00
24031;BME280;12240;51.142;22.486;2023-09-19T07:03:08;98645.63;;;19.95;100.00
24031;BME280;12240;51.142;22.486;2023-09-19T07:05:40;98648.69;;;19.99;100.00
24031;BME280;12240;51.142;22.486;2023-09-19T07:08:10;98651.03;;;19.95;100.00
24031;BME280;12240;51.142;22.486;2023-09-19T07:10:41;98651.84;;;19.96;100.00
24031;BME280;12240;51.142;22.486;2023-09-19T07:13:17;98660.78;;;19.96;100.00
24031;BME280;12240;51.142;22.486;2023-09-19T07:15:45;98645.41;;;19.97;100.00
24031;BME280;12240;51.142;22.486;2023-09-19T07:18:18;98651.84;;;19.96;100.00
24031;BME280;12240;51.142;22.486;2023-09-19T07:20:48;98655.03;;;19.93;100.00
24031;BME280;12240;51.142;22.486;2023-09-19T07:23:19;98653.94;;;19.94;100.00
24031;BME280;12240;51.142;22.486;2023-09-19T07:25:49;98652.72;;;19.78;100.00
24031;BME280;12240;51.142;22.486;2023-09-19T07:28:18;98660.06;;;19.71;100.00
24031;BME280;12240;51.142;22.486;2023-09-19T07:30:47;98666.19;;;19.66;100.00
24031;BME280;12240;51.142;22.486;2023-09-19T07:33:15;98667.28;;;19.59;100.00
24031;BME280;12240;51.142;22.486;2023-09-19T07:35:46;98671.28;;;19.56;100.00
24031;BME280;12240;51.142;22.486;2023-09-19T07:38:15;98677.22;;;19.47;100.00
24031;BME280;12240;51.142;22.486;2023-09-19T07:40:42;98676.63;;;19.45;100.00
24031;BME280;12240;51.142;22.486;2023-09-19T07:43:11;98669.78;;;19.42;100.00
24031;BME280;12240;51.142;22.486;2023-09-19T07:45:39;98670.72;;;19.36;100.00
24031;BME280;12240;51.142;22.486;2023-09-19T07:48:08;98679.69;;;19.30;100.00
24031;BME280;12240;51.142;22.486;2023-09-19T07:50:43;98681.94;;;19.33;100.00
24031;BME280;12240;51.142;22.486;2023-09-19T07:53:14;98677.84;;;19.31;100.00
24031;BME280;12240;51.142;22.486;2023-09-19T07:55:45;98685.28;;;19.29;100.00
24031;BME280;12240;51.142;22.486;2023-09-19T07:58:16;98695.25;;;19.28;100.00
24031;BME280;12240;51.142;22.486;2023-09-19T08:00:45;98694.28;;;19.23;100.00
24031;BME280;12240;51.142;22.486;2023-09-19T08:03:13;98683.69;;;19.21;100.00
24031;BME280;12240;51.142;22.486;2023-09-19T08:05:45;98691.78;;;19.21;100.00
24031;BME280;12240;51.142;22.486;2023-09-19T08:08:14;98696.00;;;19.17;100.00
24031;BME280;12240;51.142;22.486;2023-09-19T08:10:43;98706.19;;;19.15;100.00
24031;BME280;12240;51.142;22.486;2023-09-19T08:13:14;98691.88;;;19.15;100.00
24031;BME280;12240;51.142;22.486;2023-09-19T08:15:46;98704.16;;;19.11;100.00
24031;BME280;12240;51.142;22.486;2023-09-19T08:18:15;98701.53;;;19.04;100.00
24031;BME280;12240;51.142;22.486;2023-09-19T08:20:53;98705.50;;;19.02;100.00
24031;BME280;12240;51.142;22.486;2023-09-19T08:23:21;98708.22;;;19.02;100.00
24031;BME280;12240;51.142;22.486;2023-09-19T08:25:49;98710.28;;;19.00;100.00
24031;BME280;12240;51.142;22.486;2023-09-19T08:28:17;98707.88;;;18.92;100.00
24031;BME280;12240;51.142;22.486;2023-09-19T08:30:50;98709.38;;;18.88;100.00
24031;BME280;12240;51.142;22.486;2023-09-19T08:33:19;98710.22;;;18.88;100.00
24031;BME280;12240;51.142;22.486;2023-09-19T08:35:47;98711.22;;;18.87;100.00
24031;BME280;12240;51.142;22.486;2023-09-19T08:38:15;98719.16;;;18.82;100.00
24031;BME280;12240;51.142;22.486;2023-09-19T08:40:43;98730.50;;;18.66;100.00
24031;BME280;12240;51.142;22.486;2023-09-19T08:43:11;98725.66;;;18.50;100.00
24031;BME280;12240;51.142;22.486;2023-09-19T08:45:40;98733.75;;;18.50;100.00
24031;BME280;12240;51.142;22.486;2023-09-19T08:48:28;98729.81;;;18.46;100.00
24031;BME280;12240;51.142;22.486;2023-09-19T08:51:42;98730.44;;;18.48;100.00
24031;BME280;12240;51.142;22.486;2023-09-19T08:54:24;98727.91;;;18.53;100.00
24031;BME280;12240;51.142;22.486;2023-09-19T08:56:54;98723.50;;;18.58;100.00
24031;BME280;12240;51.142;22.486;2023-09-19T08:59:25;98725.75;;;18.62;100.00
24031;BME280;12240;51.142;22.486;2023-09-19T09:01:55;98725.09;;;18.66;100.00
24031;BME280;12240;51.142;22.486;2023-09-19T09:04:24;98722.59;;;18.71;100.00
24031;BME280;12240;51.142;22.486;2023-09-19T09:06:54;98722.75;;;18.76;100.00
24031;BME280;12240;51.142;22.486;2023-09-19T09:09:23;98725.78;;;18.86;100.00
24031;BME280;12240;51.142;22.486;2023-09-19T09:11:52;98724.50;;;18.89;100.00
24031;BME280;12240;51.142;22.486;2023-09-19T09:14:21;98715.31;;;18.96;100.00
24031;BME280;12240;51.142;22.486;2023-09-19T09:16:49;98719.38;;;19.05;100.00
24031;BME280;12240;51.142;22.486;2023-09-19T09:19:18;98713.09;;;19.11;100.00
24031;BME280;12240;51.142;22.486;2023-09-19T09:21:52;98713.16;;;19.23;100.00
24031;BME280;12240;51.142;22.486;2023-09-19T09:24:30;98718.31;;;19.31;100.00
24031;BME280;12240;51.142;22.486;2023-09-19T09:27:04;98719.84;;;19.45;100.00
24031;BME280;12240;51.142;22.486;2023-09-19T09:29:47;98706.09;;;19.46;100.00
24031;BME280;12240;51.142;22.486;2023-09-19T09:32:34;98712.13;;;19.48;100.00
24031;BME280;12240;51.142;22.486;2023-09-19T09:35:12;98705.19;;;19.52;100.00
24031;BME280;12240;51.142;22.486;2023-09-19T09:37:43;98708.78;;;19.64;100.00
24031;BME280;12240;51.142;22.486;2023-09-19T09:40:11;98705.94;;;19.78;100.00
24031;BME280;12240;51.142;22.486;2023-09-19T09:42:43;98704.41;;;19.82;100.00
24031;BME280;12240;51.142;22.486;2023-09-19T09:45:22;98704.56;;;19.87;100.00
24031;BME280;12240;51.142;22.486;2023-09-19T09:47:56;98706.50;;;19.80;100.00
24031;BME280;12240;51.142;22.486;2023-09-19T09:50:33;98697.97;;;19.64;100.00
24031;BME280;12240;51.142;22.486;2023-09-19T09:53:28;98701.75;;;19.63;100.00
24031;BME280;12240;51.142;22.486;2023-09-19T09:56:03;98705.47;;;19.62;100.00
24031;BME280;12240;51.142;22.486;2023-09-19T09:58:50;98703.69;;;19.56;100.00
24031;BME280;12240;51.142;22.486;2023-09-19T10:01:22;98705.09;;;19.59;100.00
24031;BME280;12240;51.142;22.486;2023-09-19T10:03:58;98702.59;;;19.64;100.00
24031;BME280;12240;51.142;22.486;2023-09-19T10:06:41;98708.88;;;19.76;100.00
24031;BME280;12240;51.142;22.486;2023-09-19T10:09:15;98706.00;;;19.71;100.00
24031;BME280;12240;51.142;22.486;2023-09-19T10:12:07;98698.53;;;19.55;100.00
24031;BME280;12240;51.142;22.486;2023-09-19T10:14:38;98702.94;;;19.49;100.00
24031;BME280;12240;51.142;22.486;2023-09-19T10:17:10;98702.50;;;19.52;100.00
24031;BME280;12240;51.142;22.486;2023-09-19T10:19:56;98699.78;;;19.52;100.00
24031;BME280;12240;51.142;22.486;2023-09-19T10:22:29;98712.31;;;19.47;100.00
24031;BME280;12240;51.142;22.486;2023-09-19T10:25:01;98718.84;;;19.39;100.00
24031;BME280;12240;51.142;22.486;2023-09-19T10:27:31;98710.41;;;19.29;100.00
24031;BME280;12240;51.142;22.486;2023-09-19T10:30:07;98709.66;;;19.22;100.00
24031;BME280;12240;51.142;22.486;2023-09-19T10:32:40;98714.44;;;19.20;100.00
24031;BME280;12240;51.142;22.486;2023-09-19T10:35:11;98717.22;;;19.14;100.00
24031;BME280;12240;51.142;22.486;2023-09-19T10:37:44;98718.47;;;19.11;100.00
24031;BME280;12240;51.142;22.486;2023-09-19T10:40:14;98714.38;;;19.09;100.00
24031;BME280;12240;51.142;22.486;2023-09-19T10:42:46;98723.25;;;19.09;100.00
24031;BME280;12240;51.142;22.486;2023-09-19T10:45:17;98714.00;;;19.05;100.00
24031;BME280;12240;51.142;22.486;2023-09-19T10:47:48;98710.69;;;19.03;100.00
24031;BME280;12240;51.142;22.486;2023-09-19T10:50:22;98722.69;;;19.07;100.00
24031;BME280;12240;51.142;22.486;2023-09-19T10:52:54;98718.63;;;18.98;100.00
24031;BME280;12240;51.142;22.486;2023-09-19T10:55:35;98719.66;;;18.97;100.00
24031;BME280;12240;51.142;22.486;2023-09-19T10:58:05;98721.00;;;18.88;100.00
24031;BME280;12240;51.142;22.486;2023-09-19T11:00:58;98722.75;;;18.76;100.00
24031;BME280;12240;51.142;22.486;2023-09-19T11:03:39;98742.72;;;18.69;100.00
24031;BME280;12240;51.142;22.486;2023-09-19T11:06:17;98743.28;;;18.46;100.00
24031;BME280;12240;51.142;22.486;2023-09-19T11:08:56;98753.47;;;18.37;100.00
24031;BME280;12240;51.142;22.486;2023-09-19T11:11:40;98753.19;;;18.21;100.00
24031;BME280;12240;51.142;22.486;2023-09-19T11:30:45;98792.78;;;17.57;100.00
24031;BME280;12240;51.142;22.486;2023-09-19T11:33:19;98800.47;;;17.47;100.00
24031;BME280;12240;51.142;22.486;2023-09-19T11:36:12;98808.56;;;17.47;100.00
24031;BME280;12240;51.142;22.486;2023-09-19T11:49:28;98818.06;;;17.29;100.00
24031;BME280;12240;51.142;22.486;2023-09-19T11:52:00;98819.09;;;17.28;100.00
24031;BME280;12240;51.142;22.486;2023-09-19T11:54:37;98823.03;;;17.32;100.00
24031;BME280;12240;51.142;22.486;2023-09-19T11:57:08;98828.81;;;17.29;100.00
24031;BME280;12240;51.142;22.486;2023-09-19T11:59:39;98827.38;;;17.27;100.00
24031;BME280;12240;51.142;22.486;2023-09-19T12:02:08;98834.63;;;17.33;100.00
24031;BME280;12240;51.142;22.486;2023-09-19T12:04:44;98832.94;;;17.32;100.00
24031;BME280;12240;51.142;22.486;2023-09-19T12:07:18;98833.78;;;17.32;100.00
24031;BME280;12240;51.142;22.486;2023-09-19T12:09:49;98830.69;;;17.29;100.00
24031;BME280;12240;51.142;22.486;2023-09-19T12:12:26;98833.78;;;17.32;100.00
24031;BME280;12240;51.142;22.486;2023-09-19T12:14:56;98835.03;;;17.30;100.00
24031;BME280;12240;51.142;22.486;2023-09-19T12:17:41;98834.84;;;17.31;100.00
24031;BME280;12240;51.142;22.486;2023-09-19T12:20:11;98832.56;;;17.35;100.00
24031;BME280;12240;51.142;22.486;2023-09-19T12:22:42;98827.78;;;17.37;100.00
24031;BME280;12240;51.142;22.486;2023-09-19T12:25:14;98830.06;;;17.40;100.00
24031;BME280;12240;51.142;22.486;2023-09-19T12:27:47;98837.09;;;17.48;100.00
24031;BME280;12240;51.142;22.486;2023-09-19T12:30:16;98832.56;;;17.48;100.00
24031;BME280;12240;51.142;22.486;2023-09-19T12:32:55;98830.72;;;17.49;100.00
24031;BME280;12240;51.142;22.486;2023-09-19T12:35:31;98826.53;;;17.53;100.00
24031;BME280;12240;51.142;22.486;2023-09-19T12:38:03;98826.16;;;17.56;100.00
24031;BME280;12240;51.142;22.486;2023-09-19T12:40:32;98816.81;;;17.58;100.00
24031;BME280;12240;51.142;22.486;2023-09-19T12:43:03;98819.50;;;17.58;100.00
24031;BME280;12240;51.142;22.486;2023-09-19T12:45:33;98820.75;;;17.56;100.00
24031;BME280;12240;51.142;22.486;2023-09-19T12:48:33;98826.34;;;17.61;100.00
24031;BME280;12240;51.142;22.486;2023-09-19T12:51:12;98813.69;;;17.68;100.00
24031;BME280;12240;51.142;22.486;2023-09-19T12:53:46;98815.34;;;17.69;100.00
24031;BME280;12240;51.142;22.486;2023-09-19T12:56:18;98815.31;;;17.75;100.00
24031;BME280;12240;51.142;22.486;2023-09-19T12:58:58;98809.75;;;17.64;100.00
24031;BME280;12240;51.142;22.486;2023-09-19T13:01:31;98806.84;;;17.65;100.00
24031;BME280;12240;51.142;22.486;2023-09-19T13:04:21;98812.88;;;17.61;100.00
24031;BME280;12240;51.142;22.486;2023-09-19T13:06:57;98807.09;;;17.57;100.00
24031;BME280;12240;51.142;22.486;2023-09-19T13:09:31;98807.69;;;17.39;100.00
24031;BME280;12240;51.142;22.486;2023-09-19T13:12:04;98806.25;;;17.37;100.00
24031;BME280;12240;51.142;22.486;2023-09-19T13:14:36;98803.97;;;17.40;100.00
24031;BME280;12240;51.142;22.486;2023-09-19T13:17:13;98806.06;;;17.52;100.00
24031;BME280;12240;51.142;22.486;2023-09-19T13:19:51;98802.31;;;17.53;100.00
24031;BME280;12240;51.142;22.486;2023-09-19T13:22:42;98808.31;;;17.55;100.00
24031;BME280;12240;51.142;22.486;2023-09-19T13:25:18;98806.88;;;17.52;100.00
24031;BME280;12240;51.142;22.486;2023-09-19T13:27:50;98810.81;;;17.50;100.00
24031;BME280;12240;51.142;22.486;2023-09-19T13:30:27;98806.06;;;17.52;100.00
24031;BME280;12240;51.142;22.486;2023-09-19T13:35:36;98812.25;;;17.32;100.00
24031;BME280;12240;51.142;22.486;2023-09-19T13:38:06;98803.53;;;17.37;100.00
24031;BME280;12240;51.142;22.486;2023-09-19T13:40:40;98807.06;;;17.37;100.00
24031;BME280;12240;51.142;22.486;2023-09-19T13:43:10;98806.44;;;17.35;100.00
24031;BME280;12240;51.142;22.486;2023-09-19T13:45:40;98806.25;;;17.43;100.00